createdAt,value
2019-06-15T00:01:05.414Z,11.20
2019-06-15T00:03:36.794Z,11.73
2019-06-15T00:06:08.135Z,11.63
2019-06-15T00:08:39.148Z,11.63
2019-06-15T00:11:10.251Z,11.65
2019-06-15T00:13:41.608Z,12.07
2019-06-15T00:16:12.563Z,11.47
2019-06-15T00:18:43.896Z,11.80
2019-06-15T00:21:14.906Z,12.63
2019-06-15T00:23:46.940Z,11.87
2019-06-15T00:26:17.884Z,11.73
2019-06-15T00:28:48.862Z,11.97
2019-06-15T00:31:19.862Z,11.90
2019-06-15T00:33:50.867Z,11.47
2019-06-15T00:36:22.244Z,12.20
2019-06-15T00:38:53.234Z,12.00
2019-06-15T00:41:24.481Z,12.30
2019-06-15T00:43:55.673Z,13.30
2019-06-15T00:46:26.735Z,11.97
2019-06-15T00:48:57.692Z,12.67
2019-06-15T00:51:28.676Z,12.93
2019-06-15T00:53:59.629Z,13.13
2019-06-15T00:56:30.572Z,14.20
2019-06-15T00:59:02.189Z,13.20
2019-06-15T01:01:35.525Z,13.33
2019-06-15T01:04:06.664Z,14.83
2019-06-15T01:06:37.666Z,15.43
2019-06-15T01:09:08.836Z,16.10
2019-06-15T01:11:39.753Z,15.87
2019-06-15T01:14:10.752Z,16.12
2019-06-15T01:16:41.655Z,16.87
2019-06-15T01:19:12.958Z,16.47
2019-06-15T01:21:43.877Z,17.30
2019-06-15T01:24:14.935Z,17.50
2019-06-15T01:26:45.958Z,18.27
2019-06-15T01:29:17.316Z,18.03
2019-06-15T01:31:48.306Z,17.77
2019-06-15T01:34:19.281Z,18.83
2019-06-15T01:36:50.336Z,19.90
2019-06-15T01:39:21.262Z,18.93
2019-06-15T01:41:52.285Z,20.63
2019-06-15T01:44:23.275Z,20.80
2019-06-15T01:46:54.512Z,22.90
2019-06-15T01:49:25.464Z,21.17
2019-06-15T01:51:56.442Z,22.93
2019-06-15T01:54:27.472Z,21.70
2019-06-15T01:56:58.695Z,22.63
2019-06-15T01:59:30.122Z,23.77
2019-06-15T02:02:01.200Z,23.43
2019-06-15T02:04:32.207Z,22.90
2019-06-15T02:07:03.422Z,24.50
2019-06-15T02:09:34.855Z,23.57
2019-06-15T02:12:05.991Z,23.17
2019-06-15T02:14:36.927Z,25.50
2019-06-15T02:17:07.886Z,23.60
2019-06-15T02:19:40.398Z,24.80
2019-06-15T02:22:11.789Z,25.07
2019-06-15T02:24:43.070Z,24.20
2019-06-15T02:27:14.088Z,24.70
2019-06-15T02:29:45.098Z,23.17
2019-06-15T02:32:16.422Z,21.10
2019-06-15T02:34:47.392Z,20.77
2019-06-15T02:37:18.624Z,22.00
2019-06-15T02:39:49.552Z,21.70
2019-06-15T02:42:20.606Z,19.93
2019-06-15T02:44:51.602Z,21.57
2019-06-15T02:47:22.929Z,20.77
2019-06-15T02:49:53.843Z,20.60
2019-06-15T02:52:25.271Z,22.57
2019-06-15T02:54:56.295Z,21.70
2019-06-15T02:57:27.235Z,20.60
2019-06-15T02:59:58.592Z,21.07
2019-06-15T03:02:29.940Z,23.50
2019-06-15T03:05:00.899Z,23.47
2019-06-15T03:07:31.918Z,25.50
2019-06-15T03:10:03.286Z,25.67
2019-06-15T03:12:36.310Z,26.37
2019-06-15T03:15:09.108Z,28.23
2019-06-15T03:17:40.016Z,26.17
2019-06-15T03:20:11.168Z,28.33
2019-06-15T03:22:42.440Z,27.57
2019-06-15T03:25:13.809Z,27.80
2019-06-15T03:27:44.877Z,28.77
2019-06-15T03:30:16.490Z,27.67
2019-06-15T03:32:49.084Z,27.23
2019-06-15T03:35:20.814Z,25.63
2019-06-15T03:37:52.108Z,21.13
2019-06-15T03:40:23.046Z,24.13
2019-06-15T03:42:54.131Z,23.47
2019-06-15T03:45:25.534Z,25.37
2019-06-15T03:47:56.626Z,24.00
2019-06-15T03:50:27.617Z,24.73
2019-06-15T03:53:00.120Z,21.37
2019-06-15T03:55:31.096Z,23.23
2019-06-15T03:58:02.897Z,24.57
2019-06-15T04:00:46.053Z,25.07
2019-06-15T04:03:17.279Z,24.83
2019-06-15T04:05:48.694Z,27.53
2019-06-15T04:08:19.739Z,26.93
2019-06-15T04:10:51.534Z,27.07
2019-06-15T04:13:23.112Z,26.77
2019-06-15T04:15:54.106Z,26.90
2019-06-15T04:18:25.496Z,28.70
2019-06-15T04:20:56.591Z,26.83
2019-06-15T04:23:27.606Z,23.27
2019-06-15T04:25:58.870Z,23.33
2019-06-15T04:28:30.111Z,25.30
2019-06-15T04:31:01.176Z,22.30
2019-06-15T04:33:32.649Z,21.50
2019-06-15T04:36:04.053Z,24.77
2019-06-15T04:38:35.068Z,22.90
2019-06-15T04:41:06.485Z,23.27
2019-06-15T04:43:37.459Z,24.17
2019-06-15T04:46:08.817Z,24.47
2019-06-15T04:48:39.807Z,25.70
2019-06-15T04:51:11.927Z,27.83
2019-06-15T04:53:43.248Z,25.83
2019-06-15T04:56:14.346Z,26.57
2019-06-15T04:58:45.268Z,27.97
2019-06-15T05:01:16.211Z,27.70
2019-06-15T05:03:47.217Z,25.50
2019-06-15T05:06:18.223Z,24.40
2019-06-15T05:08:49.239Z,25.50
2019-06-15T05:11:20.272Z,24.90
2019-06-15T05:13:51.258Z,27.03
2019-06-15T05:16:22.347Z,25.00
2019-06-15T05:18:53.380Z,23.23
2019-06-15T05:21:24.322Z,25.57
2019-06-15T05:23:55.585Z,24.00
2019-06-15T05:26:26.661Z,25.73
2019-06-15T05:28:57.594Z,25.83
2019-06-15T05:31:28.886Z,26.90
2019-06-15T05:33:59.934Z,27.87
2019-06-15T05:36:30.974Z,26.33
2019-06-15T05:39:02.343Z,26.97
2019-06-15T05:41:35.071Z,28.27
2019-06-15T05:44:07.512Z,29.53
2019-06-15T05:46:38.519Z,31.37
2019-06-15T05:49:09.494Z,29.30
2019-06-15T05:51:40.427Z,29.90
2019-06-15T05:54:11.439Z,31.40
2019-06-15T05:56:42.393Z,31.27
2019-06-15T05:59:13.733Z,30.27
2019-06-15T06:01:45.091Z,41.58
2019-06-15T06:04:16.622Z,33.27
2019-06-15T06:06:47.674Z,32.23
2019-06-15T06:09:18.606Z,30.50
2019-06-15T06:11:50.580Z,30.93
2019-06-15T06:14:21.586Z,30.77
2019-06-15T06:16:52.914Z,31.10
2019-06-15T06:19:23.897Z,32.60
2019-06-15T06:21:58.098Z,32.67
2019-06-15T06:24:27.593Z,32.13
2019-06-15T06:26:58.861Z,33.03
2019-06-15T06:29:29.859Z,34.43
2019-06-15T06:32:01.931Z,32.67
2019-06-15T06:34:33.324Z,33.00
2019-06-15T06:37:04.721Z,31.53
2019-06-15T06:39:35.713Z,30.63
2019-06-15T06:42:06.879Z,30.50
2019-06-15T06:44:37.881Z,29.10
2019-06-15T06:47:08.995Z,29.63
2019-06-15T06:49:40.349Z,28.27
2019-06-15T06:52:11.322Z,28.30
2019-06-15T06:54:42.685Z,27.50
2019-06-15T06:57:14.029Z,25.70
2019-06-15T06:59:44.980Z,26.70
2019-06-15T07:02:16.073Z,27.07
2019-06-15T07:04:47.069Z,25.90
2019-06-15T07:07:18.071Z,25.83
2019-06-15T07:09:49.403Z,24.60
2019-06-15T07:12:20.415Z,25.17
2019-06-15T07:14:51.820Z,25.27
2019-06-15T07:17:22.878Z,26.33
2019-06-15T07:19:54.293Z,26.73
2019-06-15T07:22:25.302Z,25.87
2019-06-15T07:24:56.689Z,26.97
2019-06-15T07:27:28.715Z,25.87
2019-06-15T07:29:59.636Z,24.77
2019-06-15T07:32:30.720Z,27.07
2019-06-15T07:35:02.054Z,26.47
2019-06-15T07:37:33.147Z,26.10
2019-06-15T07:40:04.963Z,24.93
2019-06-15T07:42:39.081Z,26.03
2019-06-15T07:45:09.015Z,26.33
2019-06-15T07:47:40.287Z,26.80
2019-06-15T07:50:11.402Z,25.73
2019-06-15T07:52:42.489Z,26.80
2019-06-15T07:55:13.808Z,28.67
2019-06-15T07:57:45.144Z,27.70
2019-06-15T08:00:16.422Z,28.57
2019-06-15T08:02:47.828Z,27.13
2019-06-15T08:05:19.181Z,27.30
2019-06-15T08:07:50.423Z,26.20
2019-06-15T08:10:22.133Z,28.07
2019-06-15T08:12:53.172Z,27.90
2019-06-15T08:15:24.596Z,27.60
2019-06-15T08:17:55.755Z,27.27
2019-06-15T08:20:32.201Z,25.47
2019-06-15T08:23:03.819Z,25.07
2019-06-15T08:25:34.754Z,24.27
2019-06-15T08:28:05.673Z,22.93
2019-06-15T08:30:43.241Z,22.03
2019-06-15T08:33:14.557Z,23.40
2019-06-15T08:35:46.240Z,22.53
2019-06-15T08:38:17.985Z,24.57
2019-06-15T08:40:50.036Z,22.27
2019-06-15T08:43:21.042Z,22.37
2019-06-15T08:45:51.971Z,21.60
2019-06-15T08:48:23.075Z,21.13
2019-06-15T08:50:54.095Z,19.37
2019-06-15T08:53:25.094Z,18.17
2019-06-15T08:55:56.051Z,18.63
2019-06-15T08:58:27.023Z,17.83
2019-06-15T09:00:59.080Z,18.57
2019-06-15T09:03:30.336Z,20.77
2019-06-15T09:06:02.863Z,18.90
2019-06-15T09:08:33.898Z,18.50
2019-06-15T09:11:05.121Z,18.90
2019-06-15T09:13:36.135Z,20.33
2019-06-15T09:16:07.137Z,18.73
2019-06-15T09:18:38.398Z,18.00
2019-06-15T09:21:09.790Z,19.00
2019-06-15T09:23:41.138Z,17.63
2019-06-15T09:26:12.138Z,16.03
2019-06-15T09:28:43.158Z,17.05
2019-06-15T09:31:14.106Z,16.57
2019-06-15T09:33:45.432Z,17.10
2019-06-15T09:36:16.392Z,15.83
2019-06-15T09:38:47.328Z,16.33
2019-06-15T09:41:18.731Z,16.32
2019-06-15T09:43:49.783Z,16.70
2019-06-15T09:46:20.701Z,17.73
2019-06-15T09:48:51.716Z,16.83
2019-06-15T09:51:22.692Z,18.00
2019-06-15T09:53:53.735Z,17.63
2019-06-15T09:56:24.736Z,18.00
2019-06-15T09:58:55.737Z,17.97
2019-06-15T10:01:27.066Z,17.90
2019-06-15T10:03:59.165Z,18.03
2019-06-15T10:06:31.890Z,17.20
2019-06-15T10:09:02.942Z,17.75
2019-06-15T10:11:35.426Z,16.93
2019-06-15T10:14:06.488Z,16.67
2019-06-15T10:16:37.458Z,17.30
2019-06-15T10:19:08.397Z,17.70
2019-06-15T10:21:39.460Z,20.60
2019-06-15T10:24:11.122Z,19.70
2019-06-15T10:26:42.518Z,19.10
2019-06-15T10:29:15.019Z,19.55
2019-06-15T10:31:46.051Z,18.07
2019-06-15T10:34:17.100Z,18.60
2019-06-15T10:36:48.123Z,19.52
2019-06-15T10:39:19.255Z,19.62
2019-06-15T10:41:50.348Z,16.27
2019-06-15T10:44:21.734Z,16.73
2019-06-15T10:46:53.157Z,16.67
2019-06-15T10:49:24.458Z,15.25
2019-06-15T10:51:55.481Z,14.40
2019-06-15T10:54:26.430Z,16.00
2019-06-15T10:56:57.549Z,14.93
2019-06-15T10:59:29.162Z,15.93
2019-06-15T11:02:00.242Z,15.72
2019-06-15T11:04:31.644Z,14.70
2019-06-15T11:07:03.115Z,13.15
2019-06-15T11:09:34.412Z,14.63
2019-06-15T11:12:05.437Z,14.65
2019-06-15T11:14:36.479Z,13.70
2019-06-15T11:17:07.501Z,16.20
2019-06-15T11:19:38.936Z,15.72
2019-06-15T11:22:09.988Z,16.05
2019-06-15T11:24:41.089Z,15.30
2019-06-15T11:27:12.158Z,16.50
2019-06-15T11:29:44.042Z,15.18
2019-06-15T11:32:15.139Z,16.77
2019-06-15T11:34:46.243Z,15.58
2019-06-15T11:37:17.280Z,13.15
2019-06-15T11:39:48.674Z,12.70
2019-06-15T11:42:19.693Z,11.90
2019-06-15T11:44:51.531Z,12.10
2019-06-15T11:47:22.603Z,11.63
2019-06-15T11:49:54.067Z,12.03
2019-06-15T11:52:26.074Z,12.65
2019-06-15T11:54:57.811Z,12.73
2019-06-15T11:57:29.293Z,13.20
2019-06-15T12:00:01.001Z,13.05
2019-06-15T12:02:33.392Z,12.25
2019-06-15T12:05:04.765Z,12.80
2019-06-15T12:07:35.839Z,13.55
2019-06-15T12:10:07.330Z,12.75
2019-06-15T12:12:38.404Z,13.78
2019-06-15T12:15:09.513Z,11.73
2019-06-15T12:17:41.540Z,11.22
2019-06-15T12:20:12.750Z,12.35
2019-06-15T12:22:43.851Z,11.68
2019-06-15T12:25:15.398Z,12.63
2019-06-15T12:27:46.389Z,12.15
2019-06-15T12:30:29.124Z,11.15
2019-06-15T12:33:00.084Z,9.58
2019-06-15T12:35:31.163Z,8.55
2019-06-15T12:38:04.779Z,8.68
2019-06-15T12:40:40.415Z,9.15
2019-06-15T12:43:11.528Z,9.60
2019-06-15T12:45:42.522Z,8.30
2019-06-15T12:48:22.521Z,8.58
2019-06-15T12:50:59.477Z,8.05
2019-06-15T12:53:30.539Z,8.40
2019-06-15T12:56:04.978Z,7.42
2019-06-15T12:58:36.245Z,7.80
2019-06-15T13:01:07.659Z,8.20
2019-06-15T13:03:38.634Z,7.17
2019-06-15T13:06:09.648Z,6.83
2019-06-15T13:08:40.677Z,6.80
2019-06-15T13:11:11.633Z,6.95
2019-06-15T13:13:43.466Z,6.03
2019-06-15T13:16:14.488Z,6.12
2019-06-15T13:18:46.035Z,6.58
2019-06-15T13:21:17.116Z,6.67
2019-06-15T13:23:48.499Z,7.33
2019-06-15T13:26:19.962Z,6.35
2019-06-15T13:28:51.392Z,6.35
2019-06-15T13:31:22.444Z,5.92
2019-06-15T13:33:54.869Z,6.65
2019-06-15T13:36:37.779Z,6.40
2019-06-15T13:39:09.341Z,6.30
2019-06-15T13:41:40.324Z,7.20
2019-06-15T13:44:11.345Z,7.80
2019-06-15T13:46:42.400Z,7.50
2019-06-15T13:49:13.828Z,6.58
2019-06-15T13:51:44.762Z,6.53
2019-06-15T13:54:16.979Z,7.45
2019-06-15T13:56:48.394Z,7.53
2019-06-15T13:59:19.372Z,8.58
2019-06-15T14:01:51.750Z,7.62
2019-06-15T14:04:23.556Z,8.55
2019-06-15T14:06:55.008Z,7.83
2019-06-15T14:09:26.016Z,7.25
2019-06-15T14:11:57.296Z,6.12
2019-06-15T14:14:28.305Z,5.78
2019-06-15T14:16:59.691Z,6.33
2019-06-15T14:19:30.902Z,6.03
2019-06-15T14:22:01.937Z,5.55
2019-06-15T14:24:32.921Z,6.22
2019-06-15T14:27:04.347Z,5.65
2019-06-15T14:29:35.356Z,7.10
2019-06-15T14:32:06.656Z,6.60
2019-06-15T14:34:37.715Z,7.28
2019-06-15T14:37:08.641Z,6.97
2019-06-15T14:39:39.565Z,6.03
2019-06-15T14:42:10.535Z,5.75
2019-06-15T14:44:41.539Z,5.70
2019-06-15T14:47:13.014Z,5.30
2019-06-15T14:49:44.348Z,4.83
2019-06-15T14:52:15.433Z,4.62
2019-06-15T14:54:46.541Z,3.95
2019-06-15T14:57:17.794Z,4.30
2019-06-15T14:59:57.447Z,4.17
2019-06-15T15:02:21.811Z,3.72
2019-06-15T15:04:52.828Z,3.87
2019-06-15T15:07:26.102Z,3.60
2019-06-15T15:09:56.803Z,4.10
2019-06-15T15:12:28.344Z,4.05
2019-06-15T15:14:59.678Z,4.22
2019-06-15T15:17:30.712Z,5.85
2019-06-15T15:20:04.056Z,5.50
2019-06-15T15:22:37.020Z,4.25
2019-06-15T15:25:08.131Z,4.53
2019-06-15T15:27:39.085Z,4.87
2019-06-15T15:30:10.612Z,3.70
2019-06-15T15:32:41.627Z,4.30
2019-06-15T15:35:15.939Z,3.87
2019-06-15T15:37:46.315Z,3.70
2019-06-15T15:40:17.741Z,3.17
2019-06-15T15:42:49.097Z,3.08
2019-06-15T15:45:20.034Z,2.83
2019-06-15T15:47:51.024Z,2.52
2019-06-15T15:50:22.430Z,2.45
2019-06-15T15:52:53.888Z,2.42
2019-06-15T15:55:26.532Z,2.30
2019-06-15T15:57:57.857Z,2.42
2019-06-15T16:00:33.843Z,2.10
2019-06-15T16:03:07.085Z,2.00
2019-06-15T16:05:38.154Z,1.92
2019-06-15T16:08:09.136Z,1.30
2019-06-15T16:10:40.579Z,1.40
2019-06-15T16:13:11.655Z,1.25
2019-06-15T16:15:43.002Z,1.40
2019-06-15T16:18:17.145Z,1.20
2019-06-15T16:20:48.546Z,1.00
2019-06-15T16:23:19.582Z,1.27
2019-06-15T16:25:50.576Z,1.40
2019-06-15T16:28:22.052Z,1.60
2019-06-15T16:31:09.149Z,1.40
2019-06-15T16:33:26.502Z,1.12
2019-06-15T16:35:58.758Z,1.10
2019-06-15T16:38:30.417Z,1.52
2019-06-15T16:41:02.130Z,1.30
2019-06-15T16:43:36.898Z,1.17
2019-06-15T16:46:06.925Z,1.32
2019-06-15T16:48:37.939Z,1.85
2019-06-15T16:51:09.000Z,1.77
2019-06-15T16:53:40.044Z,1.47
2019-06-15T16:56:11.829Z,1.40
2019-06-15T16:58:42.798Z,1.20
2019-06-15T17:01:27.476Z,0.90
2019-06-15T17:03:58.708Z,1.40
2019-06-15T17:06:29.822Z,1.30
2019-06-15T17:09:00.827Z,1.30
2019-06-15T17:11:33.443Z,1.20
2019-06-15T17:14:06.752Z,1.30
2019-06-15T17:16:37.147Z,1.37
2019-06-15T17:19:08.058Z,1.25
2019-06-15T17:21:40.772Z,1.20
2019-06-15T17:24:11.728Z,1.07
2019-06-15T17:26:42.654Z,1.42
2019-06-15T17:29:16.191Z,1.60
2019-06-15T17:31:46.875Z,2.37
2019-06-15T17:34:18.080Z,1.98
2019-06-15T17:36:49.159Z,2.08
2019-06-15T17:39:20.162Z,2.08
2019-06-15T17:41:51.100Z,2.20
2019-06-15T17:44:22.128Z,2.20
2019-06-15T17:46:53.225Z,2.20
2019-06-15T17:49:26.889Z,2.65
2019-06-15T17:51:56.938Z,2.30
2019-06-15T17:54:28.257Z,2.27
2019-06-15T17:56:59.364Z,2.35
2019-06-15T17:59:30.478Z,2.47
2019-06-15T18:02:02.599Z,2.40
2019-06-15T18:04:37.084Z,2.87
2019-06-15T18:07:06.701Z,3.02
2019-06-15T18:09:37.702Z,2.85
2019-06-15T18:12:09.192Z,2.70
2019-06-15T18:14:40.984Z,2.60
2019-06-15T18:17:12.386Z,2.70
2019-06-15T18:19:46.760Z,4.92
2019-06-15T18:22:17.200Z,3.33
2019-06-15T18:24:49.270Z,3.10
2019-06-15T18:27:20.382Z,2.65
2019-06-15T18:29:51.783Z,2.70
2019-06-15T18:32:22.830Z,2.72
2019-06-15T18:34:56.013Z,2.30
2019-06-15T18:37:26.744Z,3.05
2019-06-15T18:39:59.413Z,3.00
2019-06-15T18:42:30.783Z,2.40
2019-06-15T18:45:01.974Z,3.13
2019-06-15T18:47:33.079Z,2.72
2019-06-15T18:50:07.311Z,2.40
2019-06-15T18:52:37.770Z,2.83
2019-06-15T18:55:11.097Z,2.50
2019-06-15T18:57:42.105Z,3.00
2019-06-15T19:00:13.484Z,2.50
2019-06-15T19:02:44.486Z,2.95
2019-06-15T19:05:16.798Z,2.65
2019-06-15T19:07:48.198Z,2.55
2019-06-15T19:10:29.336Z,3.02
2019-06-15T19:13:00.271Z,3.02
2019-06-15T19:15:31.736Z,2.58
2019-06-15T19:18:02.822Z,2.90
2019-06-15T19:20:33.826Z,2.52
2019-06-15T19:23:06.875Z,3.10
2019-06-15T19:25:38.292Z,2.67
2019-06-15T19:28:09.224Z,3.53
2019-06-15T19:30:40.247Z,2.80
2019-06-15T19:33:11.252Z,2.50
2019-06-15T19:35:42.186Z,2.67
2019-06-15T19:38:15.995Z,3.03
2019-06-15T19:40:46.398Z,2.98
2019-06-15T19:43:17.442Z,2.55
2019-06-15T19:45:48.475Z,3.00
2019-06-15T19:48:19.839Z,3.00
2019-06-15T19:50:50.865Z,3.97
2019-06-15T19:53:22.259Z,4.90
2019-06-15T19:55:53.543Z,9.50
2019-06-15T19:58:26.414Z,5.37
2019-06-15T20:00:57.291Z,4.57
2019-06-15T20:03:28.914Z,6.17
2019-06-15T20:05:59.859Z,5.40
2019-06-15T20:08:30.933Z,4.42
2019-06-15T20:11:02.032Z,3.62
2019-06-15T20:13:33.419Z,4.37
2019-06-15T20:16:05.285Z,4.20
2019-06-15T20:18:37.563Z,4.50
2019-06-15T20:21:08.766Z,3.60
2019-06-15T20:23:40.242Z,4.13
2019-06-15T20:26:11.266Z,3.80
2019-06-15T20:28:42.346Z,3.60
2019-06-15T20:31:13.336Z,3.37
2019-06-15T20:33:46.600Z,3.43
2019-06-15T20:36:17.254Z,3.47
2019-06-15T20:38:48.590Z,3.80
2019-06-15T20:41:19.931Z,4.00
2019-06-15T20:43:51.210Z,4.77
2019-06-15T20:46:22.948Z,3.50
2019-06-15T20:48:56.381Z,3.77
2019-06-15T20:51:26.920Z,3.50
2019-06-15T20:53:57.955Z,3.47
2019-06-15T20:56:28.968Z,3.00
2019-06-15T20:58:59.982Z,3.03
2019-06-15T21:01:31.338Z,3.07
2019-06-15T21:04:02.348Z,3.47
2019-06-15T21:06:33.265Z,3.13
2019-06-15T21:09:06.735Z,3.70
2019-06-15T21:11:38.130Z,4.03
2019-06-15T21:14:09.050Z,3.67
2019-06-15T21:16:40.429Z,4.63
2019-06-15T21:19:11.820Z,4.40
2019-06-15T21:21:42.748Z,4.10
2019-06-15T21:24:13.774Z,3.93
2019-06-15T21:26:45.029Z,3.83
2019-06-15T21:29:16.708Z,3.87
2019-06-15T21:31:47.906Z,4.10
2019-06-15T21:34:18.839Z,3.87
2019-06-15T21:36:49.734Z,4.30
2019-06-15T21:39:21.735Z,4.47
2019-06-15T21:41:52.761Z,4.63
2019-06-15T21:44:26.392Z,4.83
2019-06-15T21:46:56.847Z,4.60
2019-06-15T21:49:28.080Z,4.40
2019-06-15T21:51:59.413Z,4.30
2019-06-15T21:54:31.489Z,4.30
2019-06-15T21:57:02.848Z,4.40
2019-06-15T21:59:36.731Z,4.93
2019-06-15T22:02:07.233Z,5.13
2019-06-15T22:04:38.339Z,5.00
2019-06-15T22:07:09.460Z,5.13
2019-06-15T22:09:40.487Z,5.37
2019-06-15T22:12:11.493Z,5.57
2019-06-15T22:14:42.896Z,5.37
2019-06-15T22:17:13.937Z,5.93
2019-06-15T22:19:46.623Z,5.77
2019-06-15T22:22:17.803Z,5.33
2019-06-15T22:24:48.751Z,6.03
2019-06-15T22:27:20.016Z,4.70
2019-06-15T22:29:51.254Z,4.83
2019-06-15T22:32:22.278Z,5.27
2019-06-15T22:34:56.214Z,4.20
2019-06-15T22:37:26.442Z,4.50
2019-06-15T22:39:57.511Z,4.90
2019-06-15T22:42:28.593Z,4.97
2019-06-15T22:45:01.099Z,4.37
2019-06-15T22:47:32.882Z,5.20
2019-06-15T22:50:03.817Z,4.30
2019-06-15T22:52:36.422Z,4.90
2019-06-15T22:55:08.256Z,4.60
2019-06-15T22:57:39.662Z,4.07
2019-06-15T23:00:11.397Z,4.63
2019-06-15T23:02:42.571Z,3.90
2019-06-15T23:05:13.960Z,4.07
2019-06-15T23:07:47.212Z,3.70
2019-06-15T23:10:18.459Z,3.47
2019-06-15T23:12:49.874Z,3.30
2019-06-15T23:15:21.879Z,3.50
2019-06-15T23:17:52.801Z,3.40
2019-06-15T23:20:26.827Z,3.50
2019-06-15T23:22:56.802Z,3.50
2019-06-15T23:25:27.970Z,3.43
2019-06-15T23:27:58.973Z,3.57
2019-06-15T23:30:31.003Z,3.70
2019-06-15T23:33:02.072Z,3.33
2019-06-15T23:35:38.041Z,3.60
2019-06-15T23:38:09.051Z,3.33
2019-06-15T23:40:40.048Z,3.97
2019-06-15T23:43:10.963Z,3.47
2019-06-15T23:45:41.890Z,3.80
2019-06-15T23:48:12.893Z,3.50
2019-06-15T23:50:46.268Z,3.43
2019-06-15T23:53:17.027Z,3.10
2019-06-15T23:55:48.647Z,3.30
2019-06-15T23:58:20.647Z,3.20
